UAL768 KEWR-KBOS
Flight info
| Callsign | UAL768 |
|---|---|
| Flight time | N/A |
| Altitude | 21000 |
| Route | MERIT ROBUC3 |
| Aircraft | A319/M-SDE3FGHIRWY/LB1 |
Departure
| Time | 2026-04-20 23:06 |
|---|---|
| Airport | Newark Liberty International Airport (KEWR) |
Arrival
| Time | N/A |
|---|---|
| Airport | Boston Logan International Airport (KBOS) |
| Time | Latitude | Longitude | Altitude | Speed | Heading |
|---|---|---|---|---|---|
| 2026-04-20 22:29 | 40.68453 | -74.18552 | 24 ft | 0 kts | 185° |
| 2026-04-20 22:51 | 40.68465 | -74.18551 | 22 ft | 3 kts | 184° |
| 2026-04-20 22:52 | 40.68485 | -74.18549 | 22 ft | 3 kts | 181° |
| 2026-04-20 22:52 | 40.68505 | -74.18549 | 24 ft | 3 kts | 176° |
| 2026-04-20 22:52 | 40.68525 | -74.18552 | 24 ft | 3 kts | 166° |
| 2026-04-20 22:52 | 40.68543 | -74.18560 | 22 ft | 2 kts | 146° |
| 2026-04-20 22:53 | 40.68548 | -74.18565 | 23 ft | 0 kts | 140° |
| 2026-04-20 22:58 | 40.68548 | -74.18564 | 22 ft | 0 kts | 140° |
| 2026-04-20 22:59 | 40.68528 | -74.18536 | 37 ft | 9 kts | 124° |
| 2026-04-20 22:59 | 40.68510 | -74.18429 | 22 ft | 15 kts | 95° |
| 2026-04-20 22:59 | 40.68501 | -74.18290 | 22 ft | 17 kts | 95° |
| 2026-04-20 22:59 | 40.68471 | -74.18160 | 22 ft | 17 kts | 123° |
| 2026-04-20 23:00 | 40.68381 | -74.18091 | 22 ft | 15 kts | 185° |
| 2026-04-20 23:00 | 40.68257 | -74.18106 | 22 ft | 20 kts | 185° |
| 2026-04-20 23:00 | 40.68171 | -74.18064 | 22 ft | 14 kts | 103° |
| 2026-04-20 23:00 | 40.68125 | -74.17942 | 22 ft | 17 kts | 140° |
| 2026-04-20 23:01 | 40.68056 | -74.17832 | 22 ft | 13 kts | 117° |
| 2026-04-20 23:01 | 40.67972 | -74.17831 | 22 ft | 16 kts | 207° |
| 2026-04-20 23:01 | 40.67872 | -74.17895 | 23 ft | 13 kts | 206° |
| 2026-04-20 23:01 | 40.67805 | -74.17897 | 22 ft | 11 kts | 124° |
| 2026-04-20 23:02 | 40.67781 | -74.17803 | 21 ft | 11 kts | 71° |
| 2026-04-20 23:02 | 40.67816 | -74.17769 | 21 ft | 0 kts | 26° |
| 2026-04-20 23:05 | 40.67852 | -74.17746 | 22 ft | 24 kts | 26° |
| 2026-04-20 23:05 | 40.68198 | -74.17526 | 22 ft | 85 kts | 26° |
| 2026-04-20 23:06 | 40.68903 | -74.17080 | 23 ft | 139 kts | 26° |
| 2026-04-20 23:06 | 40.69874 | -74.16451 | 379 ft | 160 kts | 21° |
| 2026-04-20 23:06 | 40.70843 | -74.15699 | 1069 ft | 167 kts | 35° |
| 2026-04-20 23:06 | 40.71691 | -74.14630 | 1812 ft | 169 kts | 39° |
| 2026-04-20 23:07 | 40.72535 | -74.13542 | 2376 ft | 180 kts | 38° |
| 2026-04-20 23:07 | 40.73518 | -74.12296 | 2529 ft | 209 kts | 39° |
| 2026-04-20 23:07 | 40.74677 | -74.10841 | 2534 ft | 242 kts | 39° |
| 2026-04-20 23:07 | 40.76082 | -74.09640 | 2539 ft | 239 kts | 11° |
| 2026-04-20 23:08 | 40.77690 | -74.09784 | 2538 ft | 235 kts | 338° |
| 2026-04-20 23:08 | 40.79244 | -74.10526 | 2992 ft | 242 kts | 348° |
| 2026-04-20 23:08 | 40.80982 | -74.10574 | 4163 ft | 246 kts | 6° |
| 2026-04-20 23:08 | 40.82558 | -74.09749 | 4769 ft | 258 kts | 32° |
| 2026-04-20 23:09 | 40.83759 | -74.07972 | 4988 ft | 264 kts | 54° |
| 2026-04-20 23:09 | 40.84679 | -74.05872 | 5026 ft | 264 kts | 57° |
| 2026-04-20 23:09 | 40.85605 | -74.03790 | 5044 ft | 264 kts | 50° |
| 2026-04-20 23:09 | 40.86750 | -74.01814 | 5816 ft | 269 kts | 49° |
| 2026-04-20 23:10 | 40.87883 | -73.99893 | 6984 ft | 267 kts | 48° |
| 2026-04-20 23:10 | 40.89050 | -73.97929 | 7954 ft | 272 kts | 48° |
| 2026-04-20 23:10 | 40.90234 | -73.95943 | 8900 ft | 278 kts | 49° |
| 2026-04-20 23:10 | 40.91454 | -73.93892 | 9822 ft | 285 kts | 49° |
| 2026-04-20 23:11 | 40.92711 | -73.91779 | 10423 ft | 303 kts | 49° |
| 2026-04-20 23:11 | 40.94038 | -73.89542 | 10735 ft | 326 kts | 49° |
| 2026-04-20 23:11 | 40.95469 | -73.87120 | 11330 ft | 337 kts | 50° |
| 2026-04-20 23:11 | 40.96923 | -73.84650 | 12098 ft | 343 kts | 49° |
| 2026-04-20 23:12 | 40.98399 | -73.82138 | 12883 ft | 348 kts | 50° |
| 2026-04-20 23:12 | 40.99891 | -73.79595 | 13640 ft | 353 kts | 49° |
| 2026-04-20 23:12 | 41.01412 | -73.76999 | 14349 ft | 358 kts | 49° |
| 2026-04-20 23:12 | 41.02949 | -73.74381 | 15030 ft | 362 kts | 49° |
| 2026-04-20 23:13 | 41.04504 | -73.71733 | 15742 ft | 365 kts | 49° |
| 2026-04-20 23:13 | 41.06070 | -73.69064 | 16455 ft | 368 kts | 49° |
| 2026-04-20 23:13 | 41.07647 | -73.66373 | 17148 ft | 371 kts | 49° |
| 2026-04-20 23:13 | 41.09241 | -73.63650 | 17852 ft | 375 kts | 49° |
| 2026-04-20 23:14 | 41.10847 | -73.60904 | 18541 ft | 379 kts | 49° |
| 2026-04-20 23:14 | 41.12465 | -73.58135 | 19136 ft | 382 kts | 49° |
| 2026-04-20 23:14 | 41.14102 | -73.55329 | 19729 ft | 386 kts | 49° |
| 2026-04-20 23:14 | 41.15751 | -73.52500 | 20326 ft | 389 kts | 49° |
| 2026-04-20 23:15 | 41.17395 | -73.49678 | 20908 ft | 393 kts | 49° |
| 2026-04-20 23:15 | 41.19075 | -73.46793 | 21206 ft | 396 kts | 49° |
| 2026-04-20 23:15 | 41.20762 | -73.43891 | 21273 ft | 396 kts | 49° |
| 2026-04-20 23:15 | 41.22445 | -73.40994 | 21265 ft | 396 kts | 49° |
| 2026-04-20 23:16 | 41.24127 | -73.38093 | 21266 ft | 396 kts | 49° |
| 2026-04-20 23:16 | 41.25806 | -73.35190 | 21272 ft | 396 kts | 49° |
| 2026-04-20 23:16 | 41.27488 | -73.32286 | 21273 ft | 396 kts | 49° |
| 2026-04-20 23:16 | 41.29170 | -73.29386 | 21264 ft | 396 kts | 50° |
| 2026-04-20 23:17 | 41.30857 | -73.26480 | 21275 ft | 397 kts | 50° |
| 2026-04-20 23:17 | 41.32542 | -73.23564 | 21268 ft | 398 kts | 50° |
| 2026-04-20 23:17 | 41.34226 | -73.20645 | 21267 ft | 398 kts | 50° |
| 2026-04-20 23:17 | 41.35902 | -73.17711 | 21263 ft | 398 kts | 52° |
| 2026-04-20 23:18 | 41.37325 | -73.14530 | 21271 ft | 401 kts | 62° |
| 2026-04-20 23:18 | 41.38317 | -73.11113 | 21275 ft | 403 kts | 72° |
| 2026-04-20 23:18 | 41.38883 | -73.07459 | 21265 ft | 404 kts | 81° |
| 2026-04-20 23:18 | 41.39274 | -73.03752 | 21264 ft | 404 kts | 81° |